Time;durP1;ratioP1;P1;durP2;ratioP2;P2;SDS_P1;SDS_P2;PMS_P1;PMS_P2;Temp;Humidity;BMP_temperature;BMP_pressure;BME280_temperature;BME280_humidity;BME280_pressure;Samples;Min_cycle;Max_cycle;Signal;HPM_P1;HPM_P2
2023/07/14 00:00:18;;;;;;;4.15;2.03;;;;;;;18.41;91.42;100309.84;5075569;28;20031;-66
2023/07/14 00:02:46;;;;;;;3.38;1.65;;;;;;;18.25;92.15;100299.94;5086156;28;20498;-67
2023/07/14 00:05:14;;;;;;;3.50;1.88;;;;;;;18.31;92.18;100310.38;5086838;28;20353;-67
2023/07/14 00:07:40;;;;;;;2.85;1.65;;;;;;;18.28;91.98;100302.50;5081856;28;20024;-66
2023/07/14 00:10:20;;;;;;;2.92;1.70;;;;;;;18.23;91.97;100304.59;5075164;28;20390;-68
2023/07/14 00:12:48;;;;;;;5.18;2.05;;;;;;;18.21;92.36;100297.53;5076419;28;20543;-68
2023/07/14 00:15:15;;;;;;;5.95;2.25;;;;;;;18.19;92.54;100305.72;5091190;28;20038;-68
2023/07/14 00:17:41;;;;;;;3.17;2.08;;;;;;;18.17;93.05;100304.09;5090796;28;20036;-68
2023/07/14 00:20:38;;;;;;;3.22;1.83;;;;;;;18.13;93.24;100303.41;5072614;28;20070;-68
2023/07/14 00:23:11;;;;;;;4.28;1.75;;;;;;;18.12;93.22;100308.88;5055962;28;20107;-68
2023/07/14 00:25:37;;;;;;;2.95;1.95;;;;;;;18.11;93.57;100297.22;5091367;28;20038;-68
2023/07/14 00:28:11;;;;;;;4.45;2.10;;;;;;;18.09;94.49;100303.63;5085178;28;20031;-67
2023/07/14 00:30:37;;;;;;;4.85;2.55;;;;;;;18.04;94.30;100290.47;5075290;28;20054;-67
2023/07/14 00:33:11;;;;;;;6.00;2.30;;;;;;;18.05;94.29;100308.38;5079710;28;20409;-68
2023/07/14 00:35:36;;;;;;;3.00;2.05;;;;;;;17.96;94.28;100298.13;5075041;28;20118;-68
2023/07/14 00:38:01;;;;;;;4.40;2.13;;;;;;;17.94;94.05;100302.72;5081670;28;20032;-67
2023/07/14 00:40:36;;;;;;;4.18;1.83;;;;;;;17.83;94.58;100298.91;5083390;28;20074;-68
2023/07/14 00:43:02;;;;;;;4.20;2.03;;;;;;;17.72;94.69;100288.78;5091872;28;20027;-68
2023/07/14 00:45:29;;;;;;;6.05;2.20;;;;;;;17.76;95.13;100292.16;5089250;28;20411;-67
2023/07/14 00:48:03;;;;;;;5.10;2.35;;;;;;;17.76;95.51;100301.09;5085026;28;20028;-67
2023/07/14 00:50:41;;;;;;;2.92;1.90;;;;;;;17.76;95.45;100290.31;5078786;28;20064;-67
2023/07/14 00:53:21;;;;;;;5.07;2.33;;;;;;;17.78;95.53;100291.09;5071793;28;20028;-66
2023/07/14 00:56:01;;;;;;;3.20;1.90;;;;;;;17.75;95.54;100285.03;5080727;28;20046;-67
2023/07/14 00:58:29;;;;;;;4.68;2.20;;;;;;;17.74;95.62;100276.06;5088526;28;20395;-66
2023/07/14 01:01:10;;;;;;;3.15;1.83;;;;;;;17.71;95.81;100278.94;5081429;28;20028;-68
2023/07/14 01:03:41;;;;;;;4.82;2.13;;;;;;;17.68;95.37;100276.44;5081140;28;20076;-68
2023/07/14 01:06:21;;;;;;;5.93;2.28;;;;;;;17.67;95.52;100274.72;5086920;28;20032;-68
2023/07/14 01:09:08;;;;;;;4.90;2.08;;;;;;;17.68;95.85;100270.19;5085022;28;20048;-69
2023/07/14 01:11:37;;;;;;;3.33;2.20;;;;;;;17.69;95.91;100263.88;5089346;28;20020;-68
2023/07/14 01:14:07;;;;;;;4.55;2.13;;;;;;;17.73;96.22;100274.34;5081881;28;20512;-66
2023/07/14 01:16:35;;;;;;;8.07;2.38;;;;;;;17.71;96.23;100268.19;5079457;28;20198;-67
2023/07/14 01:19:03;;;;;;;5.38;2.25;;;;;;;17.64;95.59;100264.13;5090576;28;20058;-68
2023/07/14 01:21:30;;;;;;;4.40;2.10;;;;;;;17.47;95.17;100269.59;5090243;28;20047;-67
2023/07/14 01:24:26;;;;;;;5.10;2.10;;;;;;;17.38;95.28;100271.91;5089738;28;20035;-67
2023/07/14 01:27:00;;;;;;;5.35;2.33;;;;;;;17.33;95.35;100258.72;5086884;28;20031;-68
2023/07/14 01:29:25;;;;;;;4.30;2.45;;;;;;;17.39;95.85;100269.13;5090276;28;20631;-67
2023/07/14 01:31:52;;;;;;;4.03;1.98;;;;;;;17.39;95.94;100271.84;5089758;28;20040;-68
2023/07/14 01:34:18;;;;;;;3.72;2.00;;;;;;;17.44;95.93;100263.50;5088444;28;20024;-66
2023/07/14 01:36:44;;;;;;;5.03;2.10;;;;;;;17.40;96.44;100270.88;5089950;28;20736;-67
2023/07/14 01:39:11;;;;;;;4.18;1.88;;;;;;;17.42;96.14;100268.97;5088483;28;20032;-67
2023/07/14 01:41:37;;;;;;;5.07;2.17;;;;;;;17.39;96.19;100263.75;5089296;28;20031;-67
2023/07/14 01:44:05;;;;;;;5.07;2.40;;;;;;;17.39;96.65;100262.88;5089605;28;20024;-68
2023/07/14 01:46:31;;;;;;;6.40;2.47;;;;;;;17.32;97.14;100251.59;5089545;28;20027;-68
2023/07/14 01:48:57;;;;;;;3.15;1.92;;;;;;;17.38;97.10;100267.38;5087227;28;20064;-67
2023/07/14 01:51:24;;;;;;;3.83;2.10;;;;;;;17.38;96.89;100271.91;5071096;28;20337;-66
2023/07/14 01:53:59;;;;;;;4.03;2.00;;;;;;;17.30;97.07;100269.63;5085483;28;20127;-67
2023/07/14 01:56:26;;;;;;;4.25;2.22;;;;;;;17.24;97.37;100263.75;5084257;28;20103;-67
2023/07/14 01:58:59;;;;;;;2.97;1.85;;;;;;;17.24;97.27;100267.31;5086555;28;20368;-66
2023/07/14 02:01:26;;;;;;;8.05;2.55;;;;;;;17.17;97.46;100263.22;5078552;28;20575;-67
2023/07/14 02:03:54;;;;;;;4.30;2.35;;;;;;;17.13;98.41;100259.81;5035858;28;1150906;-67
2023/07/14 02:06:20;;;;;;;3.75;1.95;;;;;;;17.12;97.77;100262.59;5063259;28;20028;-67
2023/07/14 02:08:46;;;;;;;6.40;2.58;;;;;;;17.14;97.96;100263.38;5052517;28;20035;-68
2023/07/14 02:11:21;;;;;;;3.92;2.28;;;;;;;17.15;98.44;100264.25;5049546;28;20443;-67
2023/07/14 02:13:46;;;;;;;5.28;2.33;;;;;;;17.14;98.49;100263.38;5062895;28;20468;-67
2023/07/14 02:16:15;;;;;;;4.63;2.00;;;;;;;17.13;98.87;100267.03;5069470;28;20060;-66
2023/07/14 02:18:43;;;;;;;5.32;2.20;;;;;;;17.14;98.74;100268.75;5058522;28;20032;-67
2023/07/14 02:21:10;;;;;;;5.47;2.45;;;;;;;17.16;98.86;100279.44;5050541;28;20086;-68
2023/07/14 02:23:39;;;;;;;4.93;3.15;;;;;;;17.17;99.17;100275.78;5051092;28;20025;-68
2023/07/14 02:26:13;;;;;;;4.63;2.63;;;;;;;17.19;99.14;100271.19;5061597;28;20040;-67
2023/07/14 02:28:38;;;;;;;6.90;3.13;;;;;;;17.19;99.42;100268.50;5053115;28;20050;-68
2023/07/14 02:31:33;;;;;;;4.05;2.72;;;;;;;17.20;98.95;100257.66;5068216;28;20032;-67
2023/07/14 02:33:59;;;;;;;3.55;2.40;;;;;;;17.16;99.32;100264.19;5043368;28;20045;-68
2023/07/14 02:36:32;;;;;;;3.88;2.35;;;;;;;17.12;99.24;100259.06;5051455;28;20035;-67
2023/07/14 02:38:57;;;;;;;4.75;2.50;;;;;;;17.10;99.85;100261.81;5070575;28;20582;-68
2023/07/14 02:41:28;;;;;;;5.57;2.45;;;;;;;17.04;99.67;100251.41;5053280;28;20029;-67
2023/07/14 02:43:59;;;;;;;5.38;2.58;;;;;;;17.05;100.00;100251.31;5063134;28;20062;-67
2023/07/14 02:46:45;;;;;;;3.35;2.03;;;;;;;16.88;99.46;100245.16;5064907;28;20021;-68
2023/07/14 02:49:11;;;;;;;6.47;2.53;;;;;;;16.75;99.12;100233.34;5035931;28;20137;-67
2023/07/14 02:51:36;;;;;;;4.95;2.60;;;;;;;16.73;99.84;100240.59;5049292;28;20024;-68
2023/07/14 02:54:04;;;;;;;5.13;2.40;;;;;;;16.74;99.99;100236.94;5061577;28;20536;-67
2023/07/14 02:56:30;;;;;;;10.02;2.78;;;;;;;16.77;100.00;100234.13;5047664;28;20029;-68
2023/07/14 02:58:55;;;;;;;6.32;2.72;;;;;;;16.80;100.00;100236.63;5062448;28;20043;-67
2023/07/14 03:01:21;;;;;;;5.13;2.58;;;;;;;16.81;100.00;100233.88;5066797;28;20036;-67
2023/07/14 03:03:47;;;;;;;5.50;2.40;;;;;;;16.78;99.89;100227.78;5065409;28;20392;-67
2023/07/14 03:06:15;;;;;;;5.95;2.70;;;;;;;16.83;100.00;100226.59;5081899;28;20131;-67
2023/07/14 03:08:41;;;;;;;5.13;2.53;;;;;;;16.80;100.00;100236.63;5088442;28;20031;-67
2023/07/14 03:11:06;;;;;;;4.28;2.55;;;;;;;16.77;100.00;100231.44;5089200;28;20023;-68
2023/07/14 03:13:32;;;;;;;5.70;2.50;;;;;;;16.69;100.00;100228.28;5089959;28;20020;-67
2023/07/14 03:15:57;;;;;;;7.55;2.10;;;;;;;16.66;100.00;100229.31;5089991;28;20032;-67
2023/07/14 03:18:23;;;;;;;6.97;2.53;;;;;;;16.57;100.00;100215.53;5074451;28;20043;-68
2023/07/14 03:20:55;;;;;;;4.50;2.75;;;;;;;16.60;100.00;100229.66;5085806;28;20936;-68
2023/07/14 03:23:20;;;;;;;5.57;2.40;;;;;;;16.60;100.00;100236.84;5069512;28;20727;-68
2023/07/14 03:25:47;;;;;;;5.70;2.45;;;;;;;16.64;100.00;100225.84;5082326;28;20059;-68
2023/07/14 03:28:12;;;;;;;4.30;2.25;;;;;;;16.60;100.00;100231.47;5089485;28;20028;-67
2023/07/14 03:30:40;;;;;;;4.55;2.33;;;;;;;16.53;100.00;100238.09;5086127;28;20393;-67
2023/07/14 03:33:06;;;;;;;4.47;2.67;;;;;;;16.49;100.00;100232.03;5088465;28;20028;-67
2023/07/14 03:35:31;;;;;;;4.80;2.30;;;;;;;16.44;99.36;100233.22;5082715;28;20035;-69
2023/07/14 03:37:57;;;;;;;4.03;1.92;;;;;;;16.43;100.00;100232.31;5077852;28;20475;-68
2023/07/14 03:40:22;;;;;;;4.60;2.20;;;;;;;16.44;100.00;100227.84;5086844;28;20421;-67
2023/07/14 03:42:47;;;;;;;4.35;2.25;;;;;;;16.44;99.98;100222.47;5085650;28;20127;-67
2023/07/14 03:45:13;;;;;;;4.47;2.10;;;;;;;16.49;100.00;100226.66;5084463;28;20024;-68
2023/07/14 03:47:39;;;;;;;4.95;2.58;;;;;;;16.50;100.00;100219.47;5083733;28;20675;-67
2023/07/14 03:50:06;;;;;;;5.63;2.55;;;;;;;16.51;100.00;100213.16;5084586;28;20053;-67
2023/07/14 03:52:32;;;;;;;5.32;2.88;;;;;;;16.55;100.00;100212.03;5080316;28;20025;-67
2023/07/14 03:54:57;;;;;;;9.23;2.80;;;;;;;16.58;100.00;100210.06;5074339;28;20051;-68
2023/07/14 03:57:22;;;;;;;3.70;2.25;;;;;;;16.58;100.00;100203.81;5087381;28;20031;-67
2023/07/14 03:59:48;;;;;;;6.95;3.28;;;;;;;16.66;100.00;100207.81;5089083;28;20028;-68
2023/07/14 04:02:13;;;;;;;4.07;2.42;;;;;;;16.69;100.00;100204.97;5079052;28;20020;-68
2023/07/14 04:04:39;;;;;;;3.63;2.20;;;;;;;16.73;100.00;100203.00;5056034;28;20052;-68
2023/07/14 04:07:04;;;;;;;7.43;2.83;;;;;;;16.71;100.00;100197.72;5067163;28;20032;-68
2023/07/14 04:09:30;;;;;;;4.45;2.75;;;;;;;16.71;100.00;100192.34;5068676;28;20025;-67
2023/07/14 04:11:55;;;;;;;5.93;2.75;;;;;;;16.71;100.00;100191.44;5067749;28;20028;-68
2023/07/14 04:14:20;;;;;;;6.28;2.70;;;;;;;16.69;100.00;100196.03;5068461;28;20028;-68
2023/07/14 04:16:46;;;;;;;6.50;2.72;;;;;;;16.77;100.00;100194.66;5068226;28;20439;-67
2023/07/14 04:19:11;;;;;;;4.68;2.60;;;;;;;16.81;100.00;100190.00;5062381;28;20035;-68
2023/07/14 04:21:37;;;;;;;6.40;2.78;;;;;;;16.83;100.00;100188.97;5048435;28;20087;-68
2023/07/14 04:24:03;;;;;;;5.88;3.08;;;;;;;16.82;100.00;100191.72;5054781;28;20188;-68
2023/07/14 04:26:29;;;;;;;5.13;2.70;;;;;;;16.87;100.00;100189.66;5068004;28;20448;-67
2023/07/14 04:28:55;;;;;;;6.25;3.22;;;;;;;16.94;100.00;100186.56;5049716;28;20485;-68
2023/07/14 04:31:21;;;;;;;4.45;2.50;;;;;;;17.00;100.00;100175.44;5048360;28;20075;-68
2023/07/14 04:33:49;;;;;;;4.82;2.60;;;;;;;17.15;100.00;100181.78;5065161;28;20114;-68
2023/07/14 04:36:15;;;;;;;9.63;3.25;;;;;;;17.24;100.00;100183.97;5045878;28;20043;-67
2023/07/14 04:38:42;;;;;;;5.28;2.97;;;;;;;17.38;100.00;100185.88;5055355;28;20070;-67
2023/07/14 04:41:12;;;;;;;7.28;2.83;;;;;;;17.47;100.00;100183.53;5062645;28;20132;-67
2023/07/14 04:43:38;;;;;;;7.72;2.97;;;;;;;17.59;100.00;100180.16;5063361;28;20021;-67
2023/07/14 04:46:03;;;;;;;4.40;2.65;;;;;;;17.65;99.98;100179.78;5044460;28;20356;-67
2023/07/14 04:48:29;;;;;;;6.55;3.17;;;;;;;17.72;99.83;100186.53;5057827;28;20460;-67
2023/07/14 04:50:54;;;;;;;6.57;2.83;;;;;;;17.64;99.63;100159.22;5055695;28;20041;-67
2023/07/14 04:53:20;;;;;;;4.97;3.47;;;;;;;17.86;99.25;100185.69;5064373;28;20038;-68
2023/07/14 04:55:46;;;;;;;7.75;2.97;;;;;;;17.91;99.18;100187.16;5068559;28;20375;-68
2023/07/14 04:58:14;;;;;;;5.93;3.85;;;;;;;17.89;98.97;100186.38;5071176;28;20025;-67
2023/07/14 05:00:42;;;;;;;5.45;3.08;;;;;;;17.91;99.03;100187.16;5070661;28;20411;-68
2023/07/14 05:03:09;;;;;;;5.45;2.67;;;;;;;17.93;99.25;100189.75;5073965;28;20028;-68
2023/07/14 05:05:35;;;;;;;6.30;3.33;;;;;;;17.92;99.48;100183.50;5079870;28;20085;-68
2023/07/14 05:08:03;;;;;;;5.40;2.60;;;;;;;17.97;99.47;100186.78;5086086;28;20499;-67
2023/07/14 05:10:32;;;;;;;5.05;2.70;;;;;;;18.05;99.86;100186.34;5092158;28;20028;-67
2023/07/14 05:12:58;;;;;;;5.72;3.13;;;;;;;18.10;99.65;100187.78;5091151;28;20119;-68
2023/07/14 05:15:25;;;;;;;7.00;3.60;;;;;;;18.11;99.66;100178.75;5090539;28;20131;-67
2023/07/14 05:17:51;;;;;;;20.95;3.60;;;;;;;18.19;99.16;100175.59;5090901;28;20035;-67
2023/07/14 05:20:19;;;;;;;5.00;3.35;;;;;;;18.23;99.01;100183.41;5091725;28;20024;-67
2023/07/14 05:22:47;;;;;;;5.75;3.33;;;;;;;18.23;98.22;100172.63;5090518;28;20054;-67
2023/07/14 05:25:14;;;;;;;7.35;3.13;;;;;;;18.28;98.05;100175.03;5079716;28;20040;-67
2023/07/14 05:27:43;;;;;;;5.63;2.70;;;;;;;18.34;97.91;100158.50;5079616;28;20032;-68
2023/07/14 05:30:10;;;;;;;5.95;3.28;;;;;;;18.49;97.62;100167.47;5080577;28;20020;-68
2023/07/14 05:32:36;;;;;;;5.05;3.28;;;;;;;18.64;96.76;100171.91;5077411;28;20039;-67
2023/07/14 05:35:02;;;;;;;5.65;2.92;;;;;;;18.84;95.82;100176.91;5071680;28;20024;-67
2023/07/14 05:37:28;;;;;;;6.13;4.07;;;;;;;19.00;95.32;100177.66;5079015;28;20491;-67
2023/07/14 05:39:53;;;;;;;5.18;3.00;;;;;;;19.15;94.22;100180.25;5088898;28;20035;-67
2023/07/14 05:42:19;;;;;;;6.25;3.13;;;;;;;19.31;93.56;100172.91;5087362;28;20482;-68
2023/07/14 05:44:44;;;;;;;5.03;3.30;;;;;;;19.39;92.15;100167.84;5088720;28;20024;-67
2023/07/14 05:47:10;;;;;;;5.70;3.17;;;;;;;19.53;92.57;100170.53;5088524;28;20046;-67
2023/07/14 05:49:36;;;;;;;6.55;2.67;;;;;;;19.69;91.12;100173.03;5090405;28;20028;-68
2023/07/14 05:52:02;;;;;;;6.38;3.80;;;;;;;19.81;90.79;100169.53;5089209;28;20097;-68
2023/07/14 05:54:27;;;;;;;7.90;3.80;;;;;;;19.97;89.71;100164.81;5086730;28;20102;-67
2023/07/14 05:56:53;;;;;;;7.03;3.28;;;;;;;20.06;88.75;100164.19;5090779;28;20042;-68
2023/07/14 05:59:19;;;;;;;7.15;3.38;;;;;;;20.09;88.67;100169.38;5091185;28;20032;-68
2023/07/14 06:01:48;;;;;;;6.97;2.78;;;;;;;20.14;88.27;100159.13;5089770;28;20043;-67
2023/07/14 06:04:15;;;;;;;6.32;3.50;;;;;;;20.15;87.40;100155.47;5077095;28;20062;-67
2023/07/14 06:06:41;;;;;;;7.30;3.72;;;;;;;20.23;87.15;100149.53;5086213;28;20472;-67
2023/07/14 06:09:06;;;;;;;6.68;2.97;;;;;;;20.43;84.98;100157.09;5081267;28;20147;-67
2023/07/14 06:11:32;;;;;;;6.40;3.88;;;;;;;20.60;84.63;100154.94;5085506;28;20044;-68
2023/07/14 06:13:58;;;;;;;6.55;3.38;;;;;;;20.81;84.14;100150.69;5084826;28;20024;-67
2023/07/14 06:16:24;;;;;;;7.50;3.33;;;;;;;21.02;83.67;100150.16;5083299;28;20040;-67
2023/07/14 06:18:50;;;;;;;6.38;3.30;;;;;;;21.14;83.01;100155.50;5078675;28;20153;-67
2023/07/14 06:21:15;;;;;;;5.57;3.30;;;;;;;21.21;81.73;100150.50;5085455;28;20109;-67
2023/07/14 06:23:41;;;;;;;6.68;3.42;;;;;;;21.25;81.06;100152.03;5070538;28;20040;-65
2023/07/14 06:26:06;;;;;;;5.50;3.00;;;;;;;21.15;81.60;100140.16;5056499;28;20217;-65
2023/07/14 06:28:32;;;;;;;6.82;3.60;;;;;;;21.21;81.99;100135.16;5082456;28;20102;-65
2023/07/14 06:31:00;;;;;;;6.25;3.17;;;;;;;21.33;81.35;100133.38;5079968;28;20045;-65
2023/07/14 06:33:26;;;;;;;9.07;3.65;;;;;;;21.52;79.32;100134.56;5083182;28;20461;-65
2023/07/14 06:35:53;;;;;;;7.22;3.80;;;;;;;21.66;78.04;100126.25;5085658;28;20034;-65
2023/07/14 06:38:19;;;;;;;5.57;3.20;;;;;;;21.88;77.48;100129.09;5076530;28;20036;-65
2023/07/14 06:40:44;;;;;;;5.45;3.10;;;;;;;22.07;77.24;100126.66;5079042;28;20551;-65
2023/07/14 06:43:10;;;;;;;12.23;3.67;;;;;;;22.33;76.46;100121.94;5078652;28;20027;-65
2023/07/14 06:45:36;;;;;;;7.97;3.65;;;;;;;22.49;74.38;100117.00;5073130;28;20127;-66
2023/07/14 06:48:03;;;;;;;7.20;3.20;;;;;;;22.62;73.23;100133.22;5069230;28;20456;-66
2023/07/14 06:50:28;;;;;;;8.02;3.55;;;;;;;22.87;72.31;100132.94;5087809;28;20032;-65
2023/07/14 06:52:54;;;;;;;6.97;3.42;;;;;;;23.08;71.78;100137.47;5084843;28;20471;-65
2023/07/14 06:55:20;;;;;;;9.02;3.95;;;;;;;23.18;69.90;100133.03;5086741;28;20383;-65
2023/07/14 06:57:46;;;;;;;6.03;3.65;;;;;;;23.06;69.26;100133.19;5083253;28;20020;-66
2023/07/14 07:00:12;;;;;;;9.85;3.90;;;;;;;23.12;70.17;100130.81;5068618;28;20086;-65
2023/07/14 07:02:41;;;;;;;7.55;3.83;;;;;;;23.24;70.90;100129.78;5064943;28;20034;-65
2023/07/14 07:05:07;;;;;;;7.30;4.25;;;;;;;23.28;71.09;100127.72;5084298;28;20032;-65
2023/07/14 07:07:34;;;;;;;10.23;3.88;;;;;;;23.43;70.83;100127.31;5073162;28;20455;-65
2023/07/14 07:09:59;;;;;;;6.93;3.92;;;;;;;23.64;70.26;100129.22;5068423;28;20035;-66
2023/07/14 07:12:25;;;;;;;9.98;4.55;;;;;;;23.79;69.63;100122.50;5084660;28;20104;-66
2023/07/14 07:14:50;;;;;;;11.93;3.83;;;;;;;24.06;69.16;100125.59;5087200;28;20036;-66
2023/07/14 07:17:16;;;;;;;9.20;3.80;;;;;;;24.03;69.05;100098.69;5085849;28;20035;-66
2023/07/14 07:19:42;;;;;;;5.70;3.00;;;;;;;24.25;68.34;100123.03;5087872;28;20038;-65
2023/07/14 07:22:08;;;;;;;8.25;3.28;;;;;;;24.19;67.54;100115.38;5086314;28;20022;-66
2023/07/14 07:24:33;;;;;;;6.47;2.97;;;;;;;24.72;67.45;100106.09;5086026;28;20128;-66
2023/07/14 07:27:00;;;;;;;5.93;2.58;;;;;;;25.16;64.85;100102.94;5066377;28;20050;-67
2023/07/14 07:29:25;;;;;;;5.70;2.60;;;;;;;25.44;63.06;100113.06;5082304;28;20036;-66
2023/07/14 07:31:51;;;;;;;5.75;2.42;;;;;;;25.59;61.79;100111.66;5083693;28;20068;-66
2023/07/14 07:34:16;;;;;;;5.50;2.35;;;;;;;25.82;60.23;100106.78;5080416;28;20016;-66
2023/07/14 07:36:42;;;;;;;3.92;2.00;;;;;;;25.83;60.08;100112.06;5082836;28;20058;-66
2023/07/14 07:39:07;;;;;;;3.90;2.03;;;;;;;25.82;59.64;100106.78;5066738;28;20028;-66
2023/07/14 07:41:33;;;;;;;4.85;2.08;;;;;;;25.81;56.95;100105.06;5077972;28;20054;-66
2023/07/14 07:43:58;;;;;;;6.57;2.10;;;;;;;25.70;59.50;100097.88;5088391;28;20028;-66
2023/07/14 07:46:27;;;;;;;7.57;2.47;;;;;;;25.93;60.21;100099.31;5087285;28;20340;-66
2023/07/14 07:48:53;;;;;;;5.57;1.98;;;;;;;26.06;59.16;100090.00;5079319;28;20058;-66
2023/07/14 07:51:19;;;;;;;4.32;2.20;;;;;;;26.08;60.04;100090.72;5076311;28;20090;-66
2023/07/14 07:53:44;;;;;;;25.90;5.43;;;;;;;26.48;60.57;100094.03;5084344;28;20024;-65
2023/07/14 07:56:10;;;;;;;5.13;1.88;;;;;;;26.65;58.04;100079.63;5088563;28;20040;-64
2023/07/14 07:58:36;;;;;;;11.40;2.53;;;;;;;26.63;57.02;100085.25;5089084;28;20043;-65
2023/07/14 08:01:04;;;;;;;4.95;1.67;;;;;;;26.81;56.35;100082.59;5085524;28;20048;-64
2023/07/14 08:03:30;;;;;;;10.00;3.42;;;;;;;27.03;55.87;100084.94;5084487;28;20054;-65
2023/07/14 08:06:00;;;;;;;22.33;3.92;;;;;;;27.09;54.84;100084.31;5088008;28;20040;-65
2023/07/14 08:08:26;;;;;;;5.75;1.92;;;;;;;27.07;54.82;100078.13;5086188;28;20032;-65
2023/07/14 08:10:52;;;;;;;6.63;2.97;;;;;;;27.12;54.92;100075.81;5086317;28;20439;-65
2023/07/14 08:13:17;;;;;;;4.57;1.85;;;;;;;27.15;55.73;100083.69;5084560;28;20458;-65
2023/07/14 08:15:42;;;;;;;4.82;2.33;;;;;;;27.13;54.75;100086.59;5085219;28;20038;-65
2023/07/14 08:18:08;;;;;;;4.10;1.77;;;;;;;27.06;52.92;100073.69;5084182;28;20020;-65
2023/07/14 08:20:38;;;;;;;4.10;1.50;;;;;;;26.67;51.73;100088.56;5086113;28;20669;-65
2023/07/14 08:23:05;;;;;;;5.20;1.88;;;;;;;26.58;54.13;100083.97;5085015;28;20034;-64
2023/07/14 08:25:32;;;;;;;6.22;1.83;;;;;;;26.54;54.48;100085.28;5083562;28;20030;-65
2023/07/14 08:27:57;;;;;;;4.60;1.88;;;;;;;26.42;53.71;100075.56;5083430;28;20442;-65
2023/07/14 08:30:23;;;;;;;2.90;1.48;;;;;;;26.59;55.56;100081.06;5086033;28;20115;-65
2023/07/14 08:32:51;;;;;;;5.30;1.75;;;;;;;26.77;55.16;100073.00;5087788;28;20027;-64
2023/07/14 08:35:18;;;;;;;2.85;1.70;;;;;;;26.85;54.49;100081.31;5089511;28;20398;-65
2023/07/14 08:37:45;;;;;;;3.03;1.63;;;;;;;26.93;54.02;100087.72;5091890;28;20028;-65
2023/07/14 08:40:17;;;;;;;4.90;1.90;;;;;;;26.97;53.69;100088.25;5088592;28;20073;-64
2023/07/14 08:43:01;;;;;;;5.22;1.77;;;;;;;26.83;54.00;100089.66;5091409;28;20081;-64
2023/07/14 08:45:51;;;;;;;6.22;1.98;;;;;;;27.10;54.27;100083.28;5092348;28;20032;-64
2023/07/14 08:48:37;;;;;;;3.88;2.08;;;;;;;27.38;53.20;100095.09;5092217;28;20495;-64
2023/07/14 08:51:15;;;;;;;2.42;1.48;;;;;;;27.39;52.68;100089.47;5091095;28;20028;-65
2023/07/14 08:53:48;;;;;;;5.35;1.63;;;;;;;27.34;52.98;100089.09;5091689;28;20032;-64
2023/07/14 08:56:16;;;;;;;;;;;;;;;27.38;52.91;100087.75;5091391;28;20460;-65
2023/07/14 08:58:44;;;;;;;5.03;1.75;;;;;;;27.45;53.49;100086.13;5091658;28;19961;-65
2023/07/14 09:01:40;;;;;;;3.65;1.50;;;;;;;27.47;53.12;100084.09;5090541;28;20035;-65
2023/07/14 09:04:14;;;;;;;3.72;1.60;;;;;;;27.49;52.45;100081.19;5078197;28;20048;-65
2023/07/14 09:06:40;;;;;;;3.72;1.55;;;;;;;27.44;52.44;100084.41;5092298;28;20024;-64
2023/07/14 09:09:18;;;;;;;7.28;1.70;;;;;;;27.43;52.15;100077.22;5091211;28;20036;-65
2023/07/14 09:12:02;;;;;;;4.75;1.52;;;;;;;27.43;52.05;100077.22;5077204;28;20062;-64
2023/07/14 09:14:39;;;;;;;15.10;3.35;;;;;;;27.40;52.56;100077.53;5091705;28;20190;-64
2023/07/14 09:17:36;;;;;;;5.60;1.77;;;;;;;27.40;51.81;100076.69;5089761;28;20140;-65
2023/07/14 09:20:21;;;;;;;4.03;1.55;;;;;;;27.36;51.81;100058.88;5085861;28;20118;-64
2023/07/14 09:23:09;;;;;;;4.53;1.92;;;;;;;27.30;53.92;100060.34;5087807;28;20051;-64
2023/07/14 09:25:43;;;;;;;2.67;1.70;;;;;;;27.26;52.46;100058.91;5089546;28;20024;-64
2023/07/14 09:28:19;;;;;;;5.80;1.40;;;;;;;27.32;50.70;100061.06;5089438;28;20752;-65
2023/07/14 09:30:46;;;;;;;5.00;1.52;;;;;;;27.33;52.72;100048.25;5085814;28;20129;-64
2023/07/14 09:33:15;;;;;;;4.10;1.40;;;;;;;27.39;51.80;100045.75;5090815;28;20027;-65
2023/07/14 09:35:41;;;;;;;2.75;1.42;;;;;;;27.42;49.03;100047.31;5090848;28;20031;-65
2023/07/14 09:38:25;;;;;;;2.72;1.35;;;;;;;27.62;51.77;100051.59;5090557;28;20043;-65
2023/07/14 09:40:58;;;;;;;3.38;1.33;;;;;;;27.63;47.17;100051.44;5089477;28;20115;-65
2023/07/14 09:43:23;;;;;;;4.55;1.83;;;;;;;28.01;47.34;100051.13;5090241;28;20032;-64
2023/07/14 09:45:53;;;;;;;11.20;1.95;;;;;;;28.27;47.28;100041.03;5090343;28;20036;-65
2023/07/14 09:48:30;;;;;;;4.57;1.40;;;;;;;28.43;46.01;100040.28;5071946;28;20032;-65
2023/07/14 09:51:04;;;;;;;6.05;1.70;;;;;;;28.57;45.81;100047.06;5089677;28;20459;-65
2023/07/14 09:53:32;;;;;;;3.33;1.58;;;;;;;28.97;45.79;100055.44;5076224;28;20024;-65
2023/07/14 09:56:16;;;;;;;8.02;1.58;;;;;;;29.22;45.16;100057.28;5086396;28;20024;-62
2023/07/14 09:58:52;;;;;;;3.90;1.70;;;;;;;29.18;46.46;100048.53;5089792;28;20016;-59
2023/07/14 10:01:18;;;;;;;2.60;1.25;;;;;;;29.37;47.25;100037.25;5090413;28;20040;-62
2023/07/14 10:03:51;;;;;;;2.22;1.35;;;;;;;29.50;46.13;100034.03;5079666;28;20045;-62
2023/07/14 10:06:25;;;;;;;;;;;;;;;29.55;45.28;100043.47;5071314;28;20461;-64
2023/07/14 10:09:08;;;;;;;3.13;1.25;;;;;;;29.58;45.11;100029.41;5068376;28;19916;-64
2023/07/14 10:11:48;;;;;;;4.15;1.20;;;;;;;29.58;43.95;100026.66;5067111;28;20035;-61
2023/07/14 10:14:25;;;;;;;3.80;1.33;;;;;;;29.64;43.58;100025.13;5053306;28;20029;-62
2023/07/14 10:16:53;;;;;;;4.82;1.38;;;;;;;29.35;42.84;100024.75;5043578;28;20383;-64
2023/07/14 10:19:20;;;;;;;4.15;1.77;;;;;;;29.76;44.55;100029.28;5062537;28;20510;-64
2023/07/14 10:21:57;;;;;;;2.08;1.10;;;;;;;30.41;42.31;100028.16;5061834;28;20108;-64
2023/07/14 10:24:23;;;;;;;3.67;1.40;;;;;;;30.69;43.51;100021.19;5066187;28;20031;-64
2023/07/14 10:27:05;;;;;;;3.10;1.45;;;;;;;30.71;42.73;100013.66;5082762;28;20044;-64
2023/07/14 10:29:57;;;;;;;4.25;1.75;;;;;;;30.39;41.74;100019.28;5048934;28;20033;-63
2023/07/14 10:32:31;;;;;;;4.15;1.40;;;;;;;30.35;41.79;100017.91;5050797;28;20044;-63
2023/07/14 10:35:09;;;;;;;3.42;1.13;;;;;;;30.04;42.21;100005.94;5067951;28;20108;-63
2023/07/14 10:37:54;;;;;;;3.28;1.30;;;;;;;30.02;45.15;100016.22;5069905;28;20120;-63
2023/07/14 10:40:24;;;;;;;3.15;1.20;;;;;;;30.14;44.28;100011.22;5069757;28;20082;-63
2023/07/14 10:43:03;;;;;;;4.03;1.10;;;;;;;30.30;44.71;100009.34;5055335;28;20082;-64
2023/07/14 10:45:29;;;;;;;5.03;1.25;;;;;;;30.37;43.59;100012.22;5063506;28;20694;-64
2023/07/14 10:48:26;;;;;;;3.63;1.33;;;;;;;30.81;42.75;100002.47;5050106;28;20035;-64
2023/07/14 10:51:05;;;;;;;5.95;1.30;;;;;;;30.79;40.58;100010.06;5053100;28;20584;-64
2023/07/14 10:53:49;;;;;;;2.85;1.02;;;;;;;31.20;41.33;99991.44;5050111;28;20530;-64
2023/07/14 10:56:29;;;;;;;3.83;1.15;;;;;;;31.15;39.63;99994.75;5066348;28;20476;-64
2023/07/14 10:58:58;;;;;;;4.28;0.90;;;;;;;30.95;42.04;99998.13;5067399;28;20039;-64
2023/07/14 11:01:53;;;;;;;3.42;1.20;;;;;;;30.72;41.47;99998.91;5069726;28;20040;-64
2023/07/14 11:04:38;;;;;;;3.38;1.65;;;;;;;30.55;41.80;99991.75;5084009;28;20532;-64
2023/07/14 11:07:07;;;;;;;1.95;1.30;;;;;;;30.51;41.69;99989.53;5087738;28;20023;-64
2023/07/14 11:09:33;;;;;;;2.35;1.10;;;;;;;30.88;42.23;99981.50;5088567;28;20042;-64
2023/07/14 11:12:15;;;;;;;2.10;1.23;;;;;;;31.66;42.16;99965.69;5086279;28;20714;-64
2023/07/14 11:15:00;;;;;;;1.45;0.82;;;;;;;32.43;38.68;99957.00;5082048;28;20028;-64
2023/07/14 11:17:42;;;;;;;3.70;1.10;;;;;;;33.20;37.39;99964.56;5082810;28;20027;-64
2023/07/14 11:20:26;;;;;;;4.80;2.55;;;;;;;33.25;37.08;99962.06;5066338;28;20024;-65
2023/07/14 11:23:19;;;;;;;2.00;0.88;;;;;;;33.82;35.08;99953.72;5067430;28;20050;-64
2023/07/14 11:25:54;;;;;;;2.10;1.08;;;;;;;34.17;33.59;99963.78;5075951;28;20043;-64
2023/07/14 11:28:40;;;;;;;2.60;1.70;;;;;;;33.99;33.21;99955.16;5068811;28;20066;-64
2023/07/14 11:31:34;;;;;;;2.80;1.35;;;;;;;33.99;32.56;99954.28;5075266;28;20116;-64
2023/07/14 11:34:18;;;;;;;3.65;1.35;;;;;;;33.95;34.92;99947.47;5069496;28;20127;-64
2023/07/14 11:36:53;;;;;;;2.20;0.90;;;;;;;34.28;35.24;99951.31;5069785;28;20025;-64